createdAt,value
2022-10-17T00:01:35.174Z,10.29
2022-10-17T00:04:12.991Z,10.10
2022-10-17T00:06:40.930Z,10.32
2022-10-17T00:09:09.588Z,10.26
2022-10-17T00:11:37.629Z,10.23
2022-10-17T00:14:05.352Z,10.22
2022-10-17T00:16:37.591Z,10.21
2022-10-17T00:19:06.260Z,10.20
2022-10-17T00:21:34.557Z,10.22
2022-10-17T00:24:02.762Z,10.20
2022-10-17T00:26:30.457Z,9.55
2022-10-17T00:28:58.185Z,10.21
2022-10-17T00:31:26.148Z,10.11
2022-10-17T00:33:55.217Z,9.48
2022-10-17T00:36:25.298Z,10.09
2022-10-17T00:38:55.397Z,10.11
2022-10-17T00:41:24.972Z,10.05
2022-10-17T00:43:55.334Z,10.03
2022-10-17T00:46:25.279Z,9.85
2022-10-17T00:48:56.996Z,9.96
2022-10-17T00:51:32.197Z,9.81
2022-10-17T00:54:01.899Z,9.77
2022-10-17T00:56:30.688Z,9.69
2022-10-17T00:59:00.019Z,9.39
2022-10-17T01:01:27.883Z,9.75
2022-10-17T01:03:56.889Z,9.77
2022-10-17T01:06:24.535Z,9.72
2022-10-17T01:08:52.349Z,9.77
2022-10-17T01:11:30.006Z,9.76
2022-10-17T01:14:03.949Z,9.72
2022-10-17T01:16:40.318Z,9.72
2022-10-17T01:19:27.672Z,9.68
2022-10-17T01:22:01.007Z,9.66
2022-10-17T01:24:56.771Z,9.69
2022-10-17T01:27:47.383Z,9.69
2022-10-17T01:30:42.276Z,9.67
2022-10-17T01:33:18.736Z,9.49
2022-10-17T01:35:53.923Z,9.56
2022-10-17T01:38:24.833Z,9.51
2022-10-17T01:41:00.084Z,9.52
2022-10-17T01:43:35.775Z,9.66
2022-10-17T01:46:13.817Z,9.12
2022-10-17T01:48:46.781Z,9.29
2022-10-17T01:51:19.703Z,9.55
2022-10-17T01:53:53.917Z,9.54
2022-10-17T01:56:24.969Z,9.41
2022-10-17T01:58:56.458Z,9.31
2022-10-17T02:01:27.098Z,9.46
2022-10-17T02:03:58.306Z,9.56
2022-10-17T02:06:26.530Z,9.50
2022-10-17T02:08:54.315Z,9.14
2022-10-17T02:11:24.996Z,9.57
2022-10-17T02:14:08.425Z,9.53
2022-10-17T02:16:43.694Z,9.64
2022-10-17T02:19:33.225Z,9.85
2022-10-17T02:22:11.986Z,10.12
2022-10-17T02:24:48.328Z,10.34
2022-10-17T02:27:20.941Z,10.29
2022-10-17T02:29:51.998Z,9.61
2022-10-17T02:32:26.336Z,9.99
2022-10-17T02:34:57.747Z,9.80
2022-10-17T02:37:30.065Z,9.77
2022-10-17T02:40:00.341Z,9.94
2022-10-17T02:42:29.931Z,9.89
2022-10-17T02:45:01.286Z,9.88
2022-10-17T02:47:35.850Z,9.74
2022-10-17T02:50:05.646Z,9.59
2022-10-17T02:52:38.399Z,9.88
2022-10-17T02:55:13.060Z,9.94
2022-10-17T02:57:45.857Z,9.70
2022-10-17T03:00:16.535Z,9.55
2022-10-17T03:02:49.294Z,9.51
2022-10-17T03:05:21.230Z,9.51
2022-10-17T03:07:48.920Z,9.49
2022-10-17T03:10:17.330Z,9.50
2022-10-17T03:12:45.252Z,9.48
2022-10-17T03:15:14.306Z,9.29
2022-10-17T03:17:42.675Z,9.36
2022-10-17T03:20:11.697Z,9.31
2022-10-17T03:22:40.722Z,9.22
2022-10-17T03:25:09.172Z,9.25
2022-10-17T03:27:37.742Z,9.05
2022-10-17T03:30:06.951Z,9.19
2022-10-17T03:32:36.706Z,9.12
2022-10-17T03:35:05.352Z,9.05
2022-10-17T03:37:33.086Z,8.78
2022-10-17T03:40:02.169Z,9.00
2022-10-17T03:42:30.272Z,9.00
2022-10-17T03:44:58.524Z,9.00
2022-10-17T03:47:26.503Z,8.77
2022-10-17T03:49:54.508Z,8.93
2022-10-17T03:52:22.563Z,8.79
2022-10-17T03:54:51.359Z,8.84
2022-10-17T03:57:20.935Z,8.88
2022-10-17T03:59:48.822Z,8.23
2022-10-17T04:02:19.805Z,8.86
2022-10-17T04:04:47.464Z,8.91
2022-10-17T04:07:15.153Z,8.91
2022-10-17T04:09:45.626Z,8.84
2022-10-17T04:12:21.668Z,8.78
2022-10-17T04:14:49.481Z,8.64
2022-10-17T04:17:17.891Z,8.40
2022-10-17T04:19:45.966Z,8.72
2022-10-17T04:22:15.920Z,8.73
2022-10-17T04:24:44.732Z,8.72
2022-10-17T04:27:29.418Z,8.69
2022-10-17T04:29:57.066Z,8.78
2022-10-17T04:32:26.636Z,8.46
2022-10-17T04:35:05.227Z,8.67
2022-10-17T04:37:33.310Z,8.37
2022-10-17T04:40:04.791Z,8.17
2022-10-17T04:42:34.988Z,8.60
2022-10-17T04:45:02.750Z,8.40
2022-10-17T04:47:30.506Z,8.48
2022-10-17T04:49:58.200Z,8.45
2022-10-17T04:52:26.596Z,7.82
2022-10-17T04:54:54.964Z,8.38
2022-10-17T04:57:22.906Z,8.12
2022-10-17T05:00:03.070Z,8.33
2022-10-17T05:03:00.034Z,8.17
2022-10-17T05:05:29.414Z,8.24
2022-10-17T05:07:58.023Z,7.98
2022-10-17T05:10:29.783Z,8.20
2022-10-17T05:12:58.857Z,8.22
2022-10-17T05:15:32.490Z,8.23
2022-10-17T05:18:00.286Z,8.06
2022-10-17T05:20:30.264Z,8.18
2022-10-17T05:22:59.766Z,8.14
2022-10-17T05:25:31.723Z,8.10
2022-10-17T05:27:59.398Z,8.05
2022-10-17T05:30:27.174Z,8.06
2022-10-17T05:33:00.747Z,7.61
2022-10-17T05:35:28.540Z,8.08
2022-10-17T05:37:56.909Z,8.01
2022-10-17T05:40:26.315Z,8.00
2022-10-17T05:42:55.277Z,8.02
2022-10-17T05:45:24.174Z,8.04
2022-10-17T05:47:51.946Z,7.96
2022-10-17T05:50:23.902Z,8.20
2022-10-17T05:53:05.739Z,8.20
2022-10-17T05:55:39.407Z,8.08
2022-10-17T05:58:09.776Z,8.05
2022-10-17T06:03:17.849Z,8.07
2022-10-17T06:05:47.516Z,8.02
2022-10-17T06:08:15.269Z,8.19
2022-10-17T06:10:44.067Z,7.84
2022-10-17T06:13:11.759Z,8.23
2022-10-17T06:15:41.406Z,7.68
2022-10-17T06:18:09.834Z,8.44
2022-10-17T06:20:38.125Z,8.51
2022-10-17T06:23:08.375Z,8.53
2022-10-17T06:26:03.029Z,8.25
2022-10-17T06:28:31.420Z,8.48
2022-10-17T06:30:59.268Z,8.28
2022-10-17T06:33:28.069Z,8.48
2022-10-17T06:35:57.439Z,8.49
2022-10-17T06:38:27.881Z,8.44
2022-10-17T06:41:04.851Z,8.46
2022-10-17T06:43:32.925Z,8.50
2022-10-17T06:46:26.809Z,8.55
2022-10-17T06:49:04.556Z,8.52
2022-10-17T06:51:52.837Z,8.56
2022-10-17T06:54:27.964Z,8.53
2022-10-17T06:57:21.471Z,8.65
2022-10-17T07:00:00.717Z,8.75
2022-10-17T07:02:35.572Z,8.79
2022-10-17T07:05:03.654Z,8.86
2022-10-17T07:07:31.991Z,8.93
2022-10-17T07:10:01.127Z,9.00
2022-10-17T07:12:28.806Z,9.11
2022-10-17T07:14:56.458Z,9.22
2022-10-17T07:17:24.209Z,9.32
2022-10-17T07:19:52.214Z,9.46
2022-10-17T07:22:19.947Z,9.57
2022-10-17T07:27:30.709Z,9.75
2022-10-17T07:29:59.926Z,9.90
2022-10-17T07:32:37.110Z,9.95
2022-10-17T07:35:06.285Z,10.13
2022-10-17T07:37:34.602Z,10.01
2022-10-17T07:40:03.049Z,10.29
2022-10-17T07:42:32.125Z,10.42
2022-10-17T07:45:00.491Z,10.55
2022-10-17T07:47:31.436Z,10.57
2022-10-17T07:50:00.398Z,10.90
2022-10-17T07:52:28.179Z,11.21
2022-10-17T07:54:56.077Z,11.62
2022-10-17T07:57:23.793Z,12.01
2022-10-17T07:59:54.212Z,12.39
2022-10-17T08:02:24.570Z,12.39
2022-10-17T08:04:52.582Z,12.50
2022-10-17T08:07:24.336Z,12.36
2022-10-17T08:09:54.666Z,12.59
2022-10-17T08:12:22.389Z,12.69
2022-10-17T08:14:50.196Z,12.75
2022-10-17T08:17:19.251Z,12.76
2022-10-17T08:19:46.907Z,12.75
2022-10-17T08:22:14.574Z,12.86
2022-10-17T08:24:42.784Z,12.52
2022-10-17T08:27:13.015Z,12.89
2022-10-17T08:29:41.008Z,13.08
2022-10-17T08:32:10.473Z,13.12
2022-10-17T08:34:39.549Z,13.22
2022-10-17T08:37:07.241Z,13.30
2022-10-17T08:39:34.930Z,13.36
2022-10-17T08:42:20.793Z,13.39
2022-10-17T08:44:58.186Z,13.53
2022-10-17T08:47:30.353Z,13.63
2022-10-17T08:50:03.741Z,13.69
2022-10-17T08:52:38.609Z,13.86
2022-10-17T08:55:16.277Z,13.91
2022-10-17T08:57:44.429Z,13.75
2022-10-17T09:00:18.685Z,14.01
2022-10-17T09:02:58.705Z,14.12
2022-10-17T09:05:36.714Z,14.22
2022-10-17T09:08:18.527Z,14.26
2022-10-17T09:10:56.953Z,14.42
2022-10-17T09:13:33.649Z,14.37
2022-10-17T09:16:12.067Z,14.57
2022-10-17T09:18:42.638Z,14.62
2022-10-17T09:21:21.806Z,14.73
2022-10-17T09:23:59.405Z,14.72
2022-10-17T09:26:38.271Z,14.94
2022-10-17T09:29:16.134Z,14.95
2022-10-17T09:31:48.309Z,15.07
2022-10-17T09:34:17.343Z,15.21
2022-10-17T09:36:46.499Z,15.30
2022-10-17T09:39:15.970Z,15.49
2022-10-17T09:41:47.211Z,15.34
2022-10-17T09:44:19.393Z,15.55
2022-10-17T09:47:03.860Z,15.56
2022-10-17T09:49:34.606Z,15.69
2022-10-17T09:52:05.463Z,15.61
2022-10-17T09:54:42.390Z,15.82
2022-10-17T09:57:12.416Z,16.03
2022-10-17T09:59:41.694Z,16.00
2022-10-17T10:02:15.651Z,16.19
2022-10-17T10:05:09.282Z,15.95
2022-10-17T10:07:39.895Z,16.35
2022-10-17T10:10:23.739Z,16.43
2022-10-17T10:13:05.861Z,16.01
2022-10-17T10:15:37.525Z,16.75
2022-10-17T10:18:31.921Z,16.93
2022-10-17T10:21:07.559Z,17.03
2022-10-17T10:23:39.961Z,17.22
2022-10-17T10:26:22.529Z,17.34
2022-10-17T10:28:58.058Z,17.32
2022-10-17T10:31:32.484Z,17.51
2022-10-17T10:34:03.275Z,17.22
2022-10-17T10:36:46.326Z,17.63
2022-10-17T10:39:28.450Z,17.72
2022-10-17T10:41:56.490Z,17.75
2022-10-17T10:44:29.481Z,17.96
2022-10-17T10:47:16.669Z,18.28
2022-10-17T10:49:45.158Z,18.29
2022-10-17T10:52:25.114Z,18.33
2022-10-17T10:55:03.901Z,18.19
2022-10-17T10:57:34.990Z,18.57
2022-10-17T11:00:13.871Z,18.54
2022-10-17T11:02:48.490Z,18.50
2022-10-17T11:05:21.785Z,18.62
2022-10-17T11:07:56.003Z,18.57
2022-10-17T11:10:33.313Z,18.55
2022-10-17T11:13:06.870Z,18.56
2022-10-17T11:15:41.404Z,18.26
2022-10-17T11:18:14.102Z,18.42
2022-10-17T11:20:51.576Z,18.47
2022-10-17T11:23:24.418Z,18.11
2022-10-17T11:25:55.970Z,18.40
2022-10-17T11:28:25.834Z,18.23
2022-10-17T11:30:57.684Z,18.25
2022-10-17T11:33:31.628Z,18.20
2022-10-17T11:36:04.996Z,18.14
2022-10-17T11:38:43.066Z,18.13
2022-10-17T11:41:18.201Z,17.97
2022-10-17T11:43:52.343Z,18.05
2022-10-17T11:46:23.734Z,18.06
2022-10-17T11:49:05.114Z,18.08
2022-10-17T11:54:33.257Z,18.21
2022-10-17T11:57:17.151Z,18.10
2022-10-17T11:59:58.462Z,18.19
2022-10-17T12:02:34.073Z,18.07
2022-10-17T12:05:08.650Z,18.05
2022-10-17T12:10:26.398Z,18.26
2022-10-17T12:12:55.426Z,18.26
2022-10-17T12:15:31.826Z,18.39
2022-10-17T12:18:02.616Z,18.34
2022-10-17T12:20:37.889Z,18.46
2022-10-17T12:23:26.619Z,18.60
2022-10-17T12:25:58.368Z,18.70
2022-10-17T12:28:33.959Z,18.69
2022-10-17T12:31:05.682Z,18.76
2022-10-17T12:33:36.233Z,18.69
2022-10-17T12:36:45.933Z,18.83
2022-10-17T12:39:51.296Z,18.90
2022-10-17T12:42:47.925Z,18.97
2022-10-17T12:45:47.898Z,18.94
2022-10-17T12:49:12.814Z,18.90
2022-10-17T12:52:29.516Z,18.92
2022-10-17T12:55:11.633Z,18.85
2022-10-17T12:57:45.502Z,18.86
2022-10-17T13:00:21.649Z,18.90
2022-10-17T13:02:53.052Z,18.90
2022-10-17T13:05:28.088Z,18.99
2022-10-17T13:07:57.548Z,18.98
2022-10-17T13:10:28.599Z,19.11
2022-10-17T13:13:06.328Z,19.29
2022-10-17T13:15:35.398Z,19.44
2022-10-17T13:18:04.900Z,19.48
2022-10-17T13:20:33.332Z,19.48
2022-10-17T13:23:01.036Z,19.51
2022-10-17T13:25:29.238Z,19.44
2022-10-17T13:28:13.507Z,19.57
2022-10-17T13:30:46.463Z,19.53
2022-10-17T13:33:29.974Z,19.53
2022-10-17T13:36:01.366Z,19.59
2022-10-17T13:38:34.168Z,19.63
2022-10-17T13:41:30.513Z,19.57
2022-10-17T13:43:53.053Z,19.55
2022-10-17T13:46:37.924Z,19.65
2022-10-17T13:49:17.768Z,19.56
2022-10-17T13:51:47.084Z,19.65
2022-10-17T13:54:19.578Z,19.57
2022-10-17T13:56:47.254Z,19.67
2022-10-17T13:59:23.562Z,19.66
2022-10-17T14:01:52.182Z,19.67
2022-10-17T14:04:21.376Z,19.73
2022-10-17T14:06:52.140Z,19.80
2022-10-17T14:09:25.097Z,19.98
2022-10-17T14:12:02.795Z,19.93
2022-10-17T14:14:46.083Z,19.86
2022-10-17T14:17:24.677Z,19.62
2022-10-17T14:20:14.200Z,19.64
2022-10-17T14:22:50.470Z,19.66
2022-10-17T14:25:30.758Z,19.72
2022-10-17T14:28:07.987Z,19.67
2022-10-17T14:30:55.852Z,19.58
2022-10-17T14:33:27.624Z,19.55
2022-10-17T14:35:58.813Z,19.50
2022-10-17T14:38:28.105Z,19.51
2022-10-17T14:41:23.588Z,19.44
2022-10-17T14:43:54.559Z,19.54
2022-10-17T14:46:22.448Z,19.42
2022-10-17T14:48:54.944Z,19.22
2022-10-17T14:51:24.010Z,19.25
2022-10-17T14:54:05.397Z,19.18
2022-10-17T14:56:40.748Z,19.16
2022-10-17T14:59:12.617Z,19.12
2022-10-17T15:01:45.879Z,19.14
2022-10-17T15:04:13.526Z,19.08
2022-10-17T15:06:42.912Z,19.06
2022-10-17T15:09:11.558Z,19.02
2022-10-17T15:11:39.398Z,19.10
2022-10-17T15:14:07.060Z,19.11
2022-10-17T15:16:35.835Z,19.10
2022-10-17T15:19:03.626Z,18.99
2022-10-17T15:21:39.517Z,18.94
2022-10-17T15:24:11.282Z,18.83
2022-10-17T15:26:39.132Z,18.70
2022-10-17T15:29:07.257Z,18.52
2022-10-17T15:31:35.872Z,18.42
2022-10-17T15:34:03.537Z,18.25
2022-10-17T15:36:35.107Z,18.05
2022-10-17T15:39:03.353Z,18.01
2022-10-17T15:41:33.483Z,17.88
2022-10-17T15:44:01.464Z,17.75
2022-10-17T15:46:31.345Z,17.65
2022-10-17T15:49:03.611Z,17.51
2022-10-17T15:51:31.294Z,17.40
2022-10-17T15:54:01.294Z,17.27
2022-10-17T15:56:31.600Z,17.19
2022-10-17T15:59:03.488Z,17.09
2022-10-17T16:01:32.599Z,16.67
2022-10-17T16:04:00.340Z,16.85
2022-10-17T16:06:28.237Z,16.73
2022-10-17T16:08:55.934Z,16.67
2022-10-17T16:11:29.815Z,16.31
2022-10-17T16:14:01.735Z,16.47
2022-10-17T16:16:29.659Z,16.29
2022-10-17T16:18:57.768Z,16.13
2022-10-17T16:24:02.505Z,16.08
2022-10-17T16:26:30.410Z,15.99
2022-10-17T16:29:02.531Z,15.91
2022-10-17T16:31:34.497Z,15.74
2022-10-17T16:34:04.577Z,15.73
2022-10-17T16:36:32.407Z,15.59
2022-10-17T16:39:00.119Z,15.54
2022-10-17T16:41:29.625Z,15.45
2022-10-17T16:43:59.849Z,15.38
2022-10-17T16:46:33.265Z,15.29
2022-10-17T16:49:01.332Z,15.21
2022-10-17T16:51:29.198Z,15.16
2022-10-17T16:54:00.092Z,14.98
2022-10-17T16:56:29.751Z,14.93
2022-10-17T16:58:57.560Z,14.91
2022-10-17T17:01:26.677Z,14.90
2022-10-17T17:03:57.627Z,14.78
2022-10-17T17:06:28.412Z,14.67
2022-10-17T17:08:57.193Z,14.63
2022-10-17T17:11:27.877Z,14.55
2022-10-17T17:13:57.992Z,14.51
2022-10-17T17:16:27.473Z,14.52
2022-10-17T17:18:57.513Z,14.46
2022-10-17T17:21:26.925Z,14.37
2022-10-17T17:23:57.191Z,14.37
2022-10-17T17:26:25.321Z,14.21
2022-10-17T17:28:53.456Z,14.09
2022-10-17T17:31:24.540Z,14.20
2022-10-17T17:33:53.188Z,14.20
2022-10-17T17:36:24.489Z,14.06
2022-10-17T17:38:54.621Z,13.99
2022-10-17T17:41:22.868Z,13.83
2022-10-17T17:43:52.348Z,14.03
2022-10-17T17:46:21.962Z,13.91
2022-10-17T17:48:50.770Z,13.77
2022-10-17T17:51:21.172Z,13.81
2022-10-17T17:53:52.348Z,13.58
2022-10-17T17:56:22.584Z,13.58
2022-10-17T17:58:55.739Z,13.52
2022-10-17T18:01:27.578Z,13.49
2022-10-17T18:03:56.511Z,13.45
2022-10-17T18:06:24.493Z,13.41
2022-10-17T18:08:55.392Z,13.42
2022-10-17T18:11:23.377Z,13.41
2022-10-17T18:13:55.595Z,13.35
2022-10-17T18:16:23.508Z,13.22
2022-10-17T18:18:51.330Z,13.06
2022-10-17T18:21:19.218Z,13.23
2022-10-17T18:23:50.272Z,13.03
2022-10-17T18:26:23.010Z,12.07
2022-10-17T18:28:53.266Z,12.69
2022-10-17T18:31:25.061Z,12.21
2022-10-17T18:33:53.776Z,12.58
2022-10-17T18:36:22.702Z,12.89
2022-10-17T18:38:51.979Z,12.40
2022-10-17T18:41:25.050Z,12.45
2022-10-17T18:43:54.411Z,12.50
2022-10-17T18:46:23.717Z,12.94
2022-10-17T18:48:51.872Z,12.73
2022-10-17T18:51:21.758Z,12.86
2022-10-17T18:53:52.103Z,12.85
2022-10-17T18:56:22.274Z,12.69
2022-10-17T18:58:50.318Z,12.80
2022-10-17T19:01:20.314Z,12.80
2022-10-17T19:03:49.788Z,12.83
2022-10-17T19:06:19.357Z,12.83
2022-10-17T19:08:47.161Z,12.89
2022-10-17T19:11:17.091Z,12.77
2022-10-17T19:13:47.889Z,12.32
2022-10-17T19:16:17.761Z,12.51
2022-10-17T19:18:50.644Z,12.61
2022-10-17T19:21:22.082Z,12.50
2022-10-17T19:23:52.337Z,11.91
2022-10-17T19:26:23.119Z,12.50
2022-10-17T19:28:53.782Z,12.47
2022-10-17T19:31:26.454Z,12.48
2022-10-17T19:33:56.129Z,12.39
2022-10-17T19:36:29.084Z,12.32
2022-10-17T19:39:01.475Z,12.36
2022-10-17T19:41:29.393Z,12.27
2022-10-17T19:43:58.488Z,11.81
2022-10-17T19:46:27.751Z,12.16
2022-10-17T19:48:56.123Z,12.14
2022-10-17T19:51:25.392Z,11.93
2022-10-17T19:53:54.057Z,11.85
2022-10-17T19:56:22.698Z,11.95
2022-10-17T19:58:51.804Z,12.10
2022-10-17T20:01:23.685Z,12.01
2022-10-17T20:03:52.300Z,12.05
2022-10-17T20:06:20.925Z,12.08
2022-10-17T20:08:49.741Z,12.09
2022-10-17T20:11:19.602Z,11.54
2022-10-17T20:13:47.687Z,11.47
2022-10-17T20:16:17.638Z,11.92
2022-10-17T20:18:47.778Z,11.70
2022-10-17T20:21:17.995Z,11.93
2022-10-17T20:23:47.776Z,10.99
2022-10-17T20:29:08.684Z,11.67
2022-10-17T20:31:37.728Z,11.68
2022-10-17T20:34:06.756Z,11.00
2022-10-17T20:36:37.075Z,11.64
2022-10-17T20:39:07.204Z,11.57
2022-10-17T20:41:35.488Z,11.60
2022-10-17T20:44:03.490Z,11.35
2022-10-17T20:46:44.703Z,11.07
2022-10-17T20:49:46.720Z,11.65
2022-10-17T20:52:14.418Z,11.57
2022-10-17T20:54:42.126Z,10.82
2022-10-17T20:57:09.949Z,11.62
2022-10-17T20:59:39.166Z,11.62
2022-10-17T21:02:07.533Z,10.97
2022-10-17T21:04:50.714Z,11.47
2022-10-17T21:07:21.110Z,11.44
2022-10-17T21:09:49.193Z,10.93
2022-10-17T21:12:25.988Z,10.53
2022-10-17T21:15:05.281Z,11.37
2022-10-17T21:17:33.038Z,11.37
2022-10-17T21:20:00.697Z,11.44
2022-10-17T21:22:30.080Z,11.40
2022-10-17T21:24:57.960Z,11.21
2022-10-17T21:27:25.622Z,11.21
2022-10-17T21:29:53.322Z,10.76
2022-10-17T21:32:40.063Z,11.31
2022-10-17T21:35:19.766Z,11.10
2022-10-17T21:37:48.829Z,11.19
2022-10-17T21:40:16.858Z,11.18
2022-10-17T21:42:44.494Z,11.21
2022-10-17T21:45:15.836Z,11.08
2022-10-17T21:48:11.064Z,10.96
2022-10-17T21:50:35.838Z,10.77
2022-10-17T21:53:05.008Z,11.04
2022-10-17T21:55:32.716Z,10.14
2022-10-17T21:58:00.368Z,10.37
2022-10-17T22:00:28.081Z,10.73
2022-10-17T22:02:55.791Z,11.16
2022-10-17T22:05:23.497Z,11.05
2022-10-17T22:07:51.295Z,11.04
2022-10-17T22:10:20.384Z,10.94
2022-10-17T22:12:48.067Z,10.43
2022-10-17T22:15:15.764Z,11.09
2022-10-17T22:17:43.421Z,10.70
2022-10-17T22:20:11.098Z,11.03
2022-10-17T22:22:38.784Z,11.11
2022-10-17T22:25:33.455Z,11.16
2022-10-17T22:28:01.171Z,10.80
2022-10-17T22:30:28.848Z,10.95
2022-10-17T22:32:56.573Z,10.02
2022-10-17T22:35:24.538Z,10.95
2022-10-17T22:37:52.293Z,10.44
2022-10-17T22:40:20.056Z,10.19
2022-10-17T22:42:49.124Z,10.52
2022-10-17T22:45:16.816Z,10.75
2022-10-17T22:47:44.514Z,10.28
2022-10-17T22:50:13.291Z,10.72
2022-10-17T22:52:41.158Z,10.57
2022-10-17T22:55:09.894Z,10.57
2022-10-17T22:57:37.599Z,10.60
2022-10-17T23:00:08.436Z,10.18
2022-10-17T23:02:36.281Z,10.55
2022-10-17T23:05:05.007Z,10.54
2022-10-17T23:07:33.292Z,10.50
2022-10-17T23:10:01.322Z,10.33
2022-10-17T23:12:29.276Z,10.26
2022-10-17T23:14:57.118Z,10.62
2022-10-17T23:17:26.268Z,10.71
2022-10-17T23:19:55.613Z,10.65
2022-10-17T23:22:25.423Z,10.47
2022-10-17T23:24:53.825Z,10.56
2022-10-17T23:27:21.527Z,10.46
2022-10-17T23:29:49.227Z,9.72
2022-10-17T23:32:16.940Z,10.36
2022-10-17T23:34:45.962Z,9.87
2022-10-17T23:37:13.702Z,10.33
2022-10-17T23:39:41.384Z,9.71
2022-10-17T23:42:09.059Z,10.54
2022-10-17T23:44:36.728Z,10.09
2022-10-17T23:47:04.444Z,10.32
2022-10-17T23:49:32.308Z,10.09
2022-10-17T23:52:01.412Z,9.98
2022-10-17T23:54:29.120Z,9.59
2022-10-17T23:56:56.824Z,10.01
2022-10-17T23:59:25.747Z,10.13
